createdAt,value
2018-03-14T00:01:46.053Z,3.82
2018-03-14T00:04:19.797Z,3.80
2018-03-14T00:06:53.495Z,3.83
2018-03-14T00:09:27.149Z,3.81
2018-03-14T00:12:00.717Z,3.80
2018-03-14T00:14:34.237Z,3.81
2018-03-14T00:17:07.818Z,3.85
2018-03-14T00:19:41.465Z,3.81
2018-03-14T00:22:26.979Z,3.81
2018-03-14T00:25:00.754Z,3.79
2018-03-14T00:27:34.429Z,3.79
2018-03-14T00:30:08.221Z,3.82
2018-03-14T00:32:41.978Z,3.78
2018-03-14T00:35:15.608Z,3.79
2018-03-14T00:37:49.219Z,3.80
2018-03-14T00:40:22.855Z,3.77
2018-03-14T00:42:56.409Z,3.76
2018-03-14T00:45:30.070Z,3.78
2018-03-14T00:48:04.013Z,3.74
2018-03-14T00:50:37.693Z,3.79
2018-03-14T00:53:11.229Z,3.78
2018-03-14T00:55:44.726Z,3.78
2018-03-14T00:58:18.423Z,3.74
2018-03-14T01:00:52.006Z,3.76
2018-03-14T01:03:25.612Z,3.75
2018-03-14T01:05:59.399Z,3.72
2018-03-14T01:08:33.066Z,3.75
2018-03-14T01:11:06.710Z,3.73
2018-03-14T01:13:40.375Z,3.78
2018-03-14T01:16:14.025Z,3.77
2018-03-14T01:18:47.677Z,3.79
2018-03-14T01:21:21.321Z,3.75
2018-03-14T01:23:55.059Z,3.71
2018-03-14T01:26:28.605Z,3.70
2018-03-14T01:29:02.196Z,3.68
2018-03-14T01:31:35.712Z,3.71
2018-03-14T01:34:09.443Z,3.70
2018-03-14T01:36:43.041Z,3.69
2018-03-14T01:39:16.836Z,3.68
2018-03-14T01:41:50.508Z,3.72
2018-03-14T01:44:24.119Z,3.72
2018-03-14T01:46:57.712Z,3.73
2018-03-14T01:49:31.349Z,3.71
2018-03-14T01:52:04.973Z,3.75
2018-03-14T01:54:38.546Z,3.76
2018-03-14T01:57:12.275Z,3.74
2018-03-14T01:59:45.973Z,3.76
2018-03-14T02:02:19.602Z,3.76
2018-03-14T02:04:53.634Z,3.76
2018-03-14T02:07:27.349Z,3.76
2018-03-14T02:10:01.403Z,3.76
2018-03-14T02:12:35.311Z,3.79
2018-03-14T02:15:08.928Z,3.81
2018-03-14T02:17:42.566Z,3.79
2018-03-14T02:20:16.186Z,3.78
2018-03-14T02:22:49.881Z,3.81
2018-03-14T02:25:23.481Z,3.79
2018-03-14T02:27:57.066Z,3.83
2018-03-14T02:30:30.702Z,3.86
2018-03-14T02:33:04.310Z,3.84
2018-03-14T02:35:38.027Z,3.85
2018-03-14T02:38:11.577Z,3.87
2018-03-14T02:40:45.212Z,3.90
2018-03-14T02:43:18.821Z,3.91
2018-03-14T02:45:52.482Z,3.91
2018-03-14T02:48:26.038Z,3.90
2018-03-14T02:50:59.734Z,3.95
2018-03-14T02:53:33.293Z,3.97
2018-03-14T02:56:06.917Z,4.04
2018-03-14T02:58:40.631Z,4.01
2018-03-14T03:01:14.309Z,4.06
2018-03-14T03:03:47.990Z,3.91
2018-03-14T03:06:21.657Z,3.89
2018-03-14T03:08:55.330Z,3.94
2018-03-14T03:11:28.944Z,3.92
2018-03-14T03:14:02.658Z,3.90
2018-03-14T03:16:36.325Z,3.92
2018-03-14T03:19:09.985Z,3.93
2018-03-14T03:21:43.550Z,3.94
2018-03-14T03:24:17.068Z,3.90
2018-03-14T03:26:50.753Z,3.89
2018-03-14T03:29:24.281Z,3.98
2018-03-14T03:31:57.966Z,3.98
2018-03-14T03:34:31.523Z,3.97
2018-03-14T03:37:05.058Z,3.94
2018-03-14T03:39:38.781Z,3.90
2018-03-14T03:42:12.441Z,3.92
2018-03-14T03:44:45.969Z,3.88
2018-03-14T03:47:19.573Z,3.89
2018-03-14T03:49:53.105Z,3.94
2018-03-14T03:52:26.680Z,3.94
2018-03-14T03:55:00.474Z,3.95
2018-03-14T03:57:34.178Z,3.96
2018-03-14T04:00:08.027Z,3.93
2018-03-14T04:02:41.638Z,3.93
2018-03-14T04:05:15.426Z,3.89
2018-03-14T04:07:49.027Z,3.92
2018-03-14T04:10:22.664Z,3.90
2018-03-14T04:12:56.239Z,3.90
2018-03-14T04:15:29.902Z,3.95
2018-03-14T04:18:03.522Z,3.95
2018-03-14T04:20:37.165Z,3.98
2018-03-14T04:23:10.921Z,3.99
2018-03-14T04:25:44.517Z,3.98
2018-03-14T04:28:18.192Z,3.98
2018-03-14T04:30:51.814Z,4.09
2018-03-14T04:33:25.390Z,4.03
2018-03-14T04:35:59.050Z,4.05
2018-03-14T04:38:32.709Z,4.04
2018-03-14T04:41:06.285Z,4.07
2018-03-14T04:43:39.873Z,4.05
2018-03-14T04:46:13.530Z,4.10
2018-03-14T04:48:47.059Z,4.13
2018-03-14T04:51:20.742Z,4.08
2018-03-14T04:53:54.341Z,4.13
2018-03-14T04:56:28.174Z,4.15
2018-03-14T04:59:01.774Z,4.20
2018-03-14T05:01:35.338Z,4.17
2018-03-14T05:04:08.930Z,4.23
2018-03-14T05:06:42.578Z,4.18
2018-03-14T05:09:16.306Z,4.24
2018-03-14T05:11:49.938Z,4.32
2018-03-14T05:14:23.535Z,4.24
2018-03-14T05:16:57.138Z,4.33
2018-03-14T05:19:30.762Z,4.30
2018-03-14T05:22:04.310Z,4.27
2018-03-14T05:24:38.058Z,4.22
2018-03-14T05:27:11.798Z,4.29
2018-03-14T05:29:45.398Z,4.25
2018-03-14T05:32:18.966Z,4.24
2018-03-14T05:34:52.589Z,4.20
2018-03-14T05:37:26.225Z,4.18
2018-03-14T05:39:59.810Z,4.20
2018-03-14T05:42:33.742Z,4.23
2018-03-14T05:45:07.342Z,4.24
2018-03-14T05:47:41.029Z,4.19
2018-03-14T05:50:14.630Z,4.18
2018-03-14T05:52:48.294Z,4.15
2018-03-14T05:55:21.922Z,4.10
2018-03-14T05:57:55.658Z,4.09
2018-03-14T06:00:29.258Z,4.06
2018-03-14T06:03:02.813Z,4.06
2018-03-14T06:05:36.521Z,4.06
2018-03-14T06:08:10.118Z,4.05
2018-03-14T06:10:43.742Z,4.08
2018-03-14T06:13:17.360Z,4.03
2018-03-14T06:15:51.005Z,4.13
2018-03-14T06:18:24.534Z,4.14
2018-03-14T06:20:58.105Z,4.07
2018-03-14T06:23:31.638Z,4.07
2018-03-14T06:26:05.177Z,4.02
2018-03-14T06:28:38.829Z,4.01
2018-03-14T06:31:12.424Z,4.01
2018-03-14T06:33:46.061Z,4.04
2018-03-14T06:36:20.004Z,4.05
2018-03-14T06:38:53.630Z,4.07
2018-03-14T06:41:27.509Z,4.06
2018-03-14T06:44:01.190Z,4.11
2018-03-14T06:46:34.805Z,4.16
2018-03-14T06:49:08.453Z,4.20
2018-03-14T06:51:42.036Z,4.19
2018-03-14T06:54:15.667Z,4.26
2018-03-14T06:56:56.885Z,4.26
2018-03-14T06:59:42.265Z,4.30
2018-03-14T07:02:27.914Z,4.24
2018-03-14T07:05:13.521Z,4.25
2018-03-14T07:07:47.296Z,4.32
2018-03-14T07:10:21.099Z,4.18
2018-03-14T07:12:54.821Z,4.12
2018-03-14T07:15:28.443Z,4.10
2018-03-14T07:18:02.169Z,4.03
2018-03-14T07:20:35.825Z,4.34
2018-03-14T07:23:09.373Z,5.75
2018-03-14T07:25:43.018Z,7.10
2018-03-14T07:28:16.565Z,8.14
2018-03-14T07:30:50.176Z,8.85
2018-03-14T07:33:23.835Z,10.01
2018-03-14T07:35:58.321Z,11.19
2018-03-14T07:38:31.975Z,11.70
2018-03-14T07:41:05.765Z,11.49
2018-03-14T07:43:39.434Z,11.42
2018-03-14T07:46:12.974Z,12.44
2018-03-14T07:48:46.450Z,13.16
2018-03-14T07:51:20.131Z,12.93
2018-03-14T07:53:53.766Z,13.32
2018-03-14T07:56:27.313Z,12.96
2018-03-14T07:59:00.902Z,12.68
2018-03-14T08:01:34.682Z,13.11
2018-03-14T08:04:08.497Z,12.78
2018-03-14T08:06:42.144Z,13.69
2018-03-14T08:09:15.902Z,13.10
2018-03-14T08:11:49.562Z,13.25
2018-03-14T08:14:23.114Z,12.70
2018-03-14T08:16:56.670Z,12.63
2018-03-14T08:19:30.363Z,11.59
2018-03-14T08:22:03.910Z,11.59
2018-03-14T08:24:37.626Z,11.19
2018-03-14T08:27:11.374Z,11.31
2018-03-14T08:29:45.182Z,11.80
2018-03-14T08:32:18.834Z,12.12
2018-03-14T08:34:53.110Z,11.36
2018-03-14T08:37:26.793Z,9.98
2018-03-14T08:40:00.413Z,10.19
2018-03-14T08:42:34.199Z,10.71
2018-03-14T08:45:07.738Z,9.87
2018-03-14T08:47:41.285Z,9.48
2018-03-14T08:50:14.993Z,10.92
2018-03-14T08:52:48.686Z,11.81
2018-03-14T08:55:22.238Z,11.73
2018-03-14T08:57:55.982Z,11.26
2018-03-14T09:00:29.734Z,11.86
2018-03-14T09:03:03.426Z,11.03
2018-03-14T09:05:37.082Z,11.61
2018-03-14T09:08:10.890Z,10.47
2018-03-14T09:10:44.521Z,10.36
2018-03-14T09:13:18.269Z,11.15
2018-03-14T09:15:51.930Z,12.26
2018-03-14T09:18:25.684Z,12.56
2018-03-14T09:20:59.291Z,13.23
2018-03-14T09:23:32.902Z,11.45
2018-03-14T09:26:06.571Z,10.90
2018-03-14T09:28:40.255Z,10.28
2018-03-14T09:31:13.826Z,10.94
2018-03-14T09:33:47.379Z,11.33
2018-03-14T09:36:20.950Z,12.05
2018-03-14T09:38:54.677Z,12.64
2018-03-14T09:41:28.556Z,13.38
2018-03-14T09:44:02.105Z,14.88
2018-03-14T09:46:35.790Z,16.18
2018-03-14T09:49:09.348Z,13.75
2018-03-14T09:51:42.891Z,12.63
2018-03-14T09:54:16.609Z,11.49
2018-03-14T09:56:50.170Z,10.92
2018-03-14T09:59:23.730Z,10.15
2018-03-14T10:01:57.289Z,9.93
2018-03-14T10:04:30.958Z,9.94
2018-03-14T10:07:04.609Z,10.00
2018-03-14T10:09:38.314Z,9.38
2018-03-14T10:12:11.880Z,9.51
2018-03-14T10:14:45.414Z,10.19
2018-03-14T10:17:18.974Z,9.62
2018-03-14T10:19:52.506Z,9.15
2018-03-14T10:22:26.048Z,8.82
2018-03-14T10:24:59.637Z,8.57
2018-03-14T10:27:33.405Z,8.56
2018-03-14T10:30:07.130Z,8.46
2018-03-14T10:32:40.714Z,8.66
2018-03-14T10:35:14.375Z,8.92
2018-03-14T10:37:48.006Z,9.12
2018-03-14T10:40:21.586Z,8.85
2018-03-14T10:42:55.105Z,8.93
2018-03-14T10:45:28.690Z,8.84
2018-03-14T10:48:02.273Z,8.80
2018-03-14T10:50:35.805Z,8.68
2018-03-14T10:53:09.462Z,8.90
2018-03-14T10:55:43.148Z,9.32
2018-03-14T10:58:16.834Z,10.04
2018-03-14T11:00:55.980Z,10.32
2018-03-14T11:03:35.602Z,9.89
2018-03-14T11:06:09.269Z,9.37
2018-03-14T11:08:42.982Z,9.06
2018-03-14T11:11:16.553Z,9.12
2018-03-14T11:13:50.371Z,9.75
2018-03-14T11:16:23.974Z,9.89
2018-03-14T11:18:57.485Z,10.34
2018-03-14T11:21:31.173Z,10.60
2018-03-14T11:24:04.679Z,9.84
2018-03-14T11:26:38.238Z,9.18
2018-03-14T11:29:12.031Z,9.04
2018-03-14T11:31:45.561Z,9.91
2018-03-14T11:34:19.202Z,9.88
2018-03-14T11:36:52.927Z,10.23
2018-03-14T11:39:26.688Z,10.31
2018-03-14T11:42:00.345Z,10.29
2018-03-14T11:44:33.993Z,10.54
2018-03-14T11:47:07.546Z,10.19
2018-03-14T11:49:41.341Z,10.23
2018-03-14T11:52:15.086Z,10.28
2018-03-14T11:54:48.678Z,9.54
2018-03-14T11:57:22.252Z,9.47
2018-03-14T11:59:55.777Z,8.93
2018-03-14T12:02:29.561Z,9.24
2018-03-14T12:05:03.334Z,9.60
2018-03-14T12:07:37.079Z,9.71
2018-03-14T12:10:10.650Z,9.55
2018-03-14T12:12:44.243Z,9.46
2018-03-14T12:15:17.835Z,9.84
2018-03-14T12:17:51.476Z,9.74
2018-03-14T12:20:25.039Z,9.81
2018-03-14T12:22:58.685Z,9.72
2018-03-14T12:25:32.318Z,9.72
2018-03-14T12:28:05.956Z,9.76
2018-03-14T12:30:39.439Z,9.55
2018-03-14T12:33:13.089Z,9.67
2018-03-14T12:35:46.629Z,9.68
2018-03-14T12:38:20.426Z,9.59
2018-03-14T12:40:54.098Z,9.82
2018-03-14T12:43:27.662Z,9.82
2018-03-14T12:46:01.289Z,9.93
2018-03-14T12:48:34.905Z,10.11
2018-03-14T12:51:08.463Z,9.71
2018-03-14T12:53:42.141Z,9.92
2018-03-14T12:56:15.848Z,9.85
2018-03-14T12:58:49.634Z,9.66
2018-03-14T13:01:23.194Z,9.67
2018-03-14T13:03:56.867Z,9.67
2018-03-14T13:06:30.714Z,9.92
2018-03-14T13:09:04.341Z,10.26
2018-03-14T13:11:37.936Z,10.21
2018-03-14T13:14:11.479Z,10.08
2018-03-14T13:16:45.089Z,10.18
2018-03-14T13:19:18.781Z,10.12
2018-03-14T13:21:52.553Z,10.04
2018-03-14T13:24:26.193Z,10.10
2018-03-14T13:27:00.078Z,10.06
2018-03-14T13:29:33.734Z,9.95
2018-03-14T13:32:07.260Z,9.99
2018-03-14T13:34:40.973Z,10.18
2018-03-14T13:37:14.500Z,10.18
2018-03-14T13:39:48.042Z,10.16
2018-03-14T13:42:21.537Z,10.36
2018-03-14T13:44:55.057Z,10.52
2018-03-14T13:47:28.651Z,10.65
2018-03-14T13:50:02.130Z,10.92
2018-03-14T13:52:35.950Z,11.02
2018-03-14T13:55:09.569Z,10.78
2018-03-14T13:57:43.331Z,10.77
2018-03-14T14:00:17.029Z,10.73
2018-03-14T14:02:50.571Z,10.88
2018-03-14T14:05:24.254Z,10.76
2018-03-14T14:07:57.805Z,10.65
2018-03-14T14:10:31.358Z,10.39
2018-03-14T14:13:05.092Z,10.29
2018-03-14T14:15:38.645Z,10.31
2018-03-14T14:18:12.366Z,10.51
2018-03-14T14:20:46.110Z,10.57
2018-03-14T14:23:19.743Z,10.68
2018-03-14T14:25:53.226Z,10.51
2018-03-14T14:28:26.954Z,10.62
2018-03-14T14:31:00.771Z,10.49
2018-03-14T14:33:34.406Z,10.52
2018-03-14T14:36:08.062Z,10.69
2018-03-14T14:38:41.609Z,11.09
2018-03-14T14:41:15.246Z,11.50
2018-03-14T14:43:48.784Z,11.63
2018-03-14T14:46:22.542Z,11.60
2018-03-14T14:48:56.168Z,11.49
2018-03-14T14:51:29.717Z,11.85
2018-03-14T14:54:03.358Z,12.13
2018-03-14T14:56:37.126Z,12.47
2018-03-14T14:59:10.825Z,12.54
2018-03-14T15:01:44.391Z,12.41
2018-03-14T15:04:18.229Z,12.05
2018-03-14T15:06:51.910Z,11.79
2018-03-14T15:09:25.703Z,11.61
2018-03-14T15:11:59.194Z,11.34
2018-03-14T15:14:32.950Z,11.03
2018-03-14T15:17:06.558Z,10.99
2018-03-14T15:19:40.319Z,10.72
2018-03-14T15:22:13.849Z,10.47
2018-03-14T15:24:47.503Z,10.41
2018-03-14T15:27:21.036Z,10.37
2018-03-14T15:29:54.554Z,10.30
2018-03-14T15:32:28.197Z,10.17
2018-03-14T15:35:01.814Z,10.14
2018-03-14T15:37:35.562Z,9.95
2018-03-14T15:40:09.086Z,9.81
2018-03-14T15:42:42.625Z,9.77
2018-03-14T15:45:16.246Z,9.62
2018-03-14T15:47:49.874Z,9.62
2018-03-14T15:50:23.582Z,9.62
2018-03-14T15:52:57.366Z,9.51
2018-03-14T15:55:31.017Z,9.49
2018-03-14T15:58:04.663Z,9.47
2018-03-14T16:00:38.362Z,9.37
2018-03-14T16:03:11.930Z,9.32
2018-03-14T16:05:45.606Z,9.36
2018-03-14T16:08:19.330Z,9.52
2018-03-14T16:10:53.297Z,9.51
2018-03-14T16:13:26.873Z,9.40
2018-03-14T16:16:00.701Z,9.47
2018-03-14T16:18:34.240Z,9.60
2018-03-14T16:21:07.886Z,9.71
2018-03-14T16:23:41.480Z,9.99
2018-03-14T16:26:15.120Z,10.64
2018-03-14T16:28:48.787Z,11.44
2018-03-14T16:31:22.547Z,12.15
2018-03-14T16:33:56.225Z,12.73
2018-03-14T16:36:29.946Z,13.05
2018-03-14T16:39:03.547Z,13.15
2018-03-14T16:41:37.090Z,13.20
2018-03-14T16:44:10.702Z,13.16
2018-03-14T16:46:44.453Z,13.26
2018-03-14T16:49:18.172Z,13.06
2018-03-14T16:51:52.005Z,12.57
2018-03-14T16:54:25.529Z,11.80
2018-03-14T16:56:59.326Z,11.43
2018-03-14T16:59:32.942Z,10.96
2018-03-14T17:02:06.678Z,10.64
2018-03-14T17:04:40.230Z,10.27
2018-03-14T17:07:13.861Z,10.09
2018-03-14T17:09:47.358Z,9.65
2018-03-14T17:12:21.027Z,9.23
2018-03-14T17:14:54.677Z,9.06
2018-03-14T17:17:28.457Z,8.94
2018-03-14T17:20:02.111Z,8.81
2018-03-14T17:22:35.726Z,8.69
2018-03-14T17:25:09.234Z,8.64
2018-03-14T17:27:42.785Z,8.45
2018-03-14T17:30:16.393Z,8.25
2018-03-14T17:32:50.055Z,8.21
2018-03-14T17:35:23.550Z,8.10
2018-03-14T17:37:57.234Z,7.84
2018-03-14T17:40:30.861Z,7.65
2018-03-14T17:43:04.409Z,7.54
2018-03-14T17:45:37.857Z,7.44
2018-03-14T17:48:11.457Z,7.37
2018-03-14T17:50:44.973Z,7.40
2018-03-14T17:53:18.739Z,7.31
2018-03-14T17:55:52.359Z,7.28
2018-03-14T17:58:25.939Z,7.29
2018-03-14T18:00:59.455Z,7.24
2018-03-14T18:03:33.080Z,7.30
2018-03-14T18:06:06.801Z,7.26
2018-03-14T18:08:40.446Z,7.21
2018-03-14T18:11:13.970Z,7.16
2018-03-14T18:13:47.522Z,7.03
2018-03-14T18:16:21.094Z,7.00
2018-03-14T18:18:54.771Z,6.92
2018-03-14T18:21:28.368Z,6.89
2018-03-14T18:24:01.878Z,6.82
2018-03-14T18:26:35.439Z,6.80
2018-03-14T18:29:09.019Z,6.79
2018-03-14T18:31:43.305Z,6.75
2018-03-14T18:34:16.834Z,6.65
2018-03-14T18:36:50.466Z,6.64
2018-03-14T18:39:24.096Z,6.62
2018-03-14T18:41:57.702Z,6.64
2018-03-14T18:44:31.270Z,6.63
2018-03-14T18:47:04.911Z,6.67
2018-03-14T18:49:38.591Z,6.50
2018-03-14T18:52:12.053Z,6.42
2018-03-14T18:54:45.644Z,6.38
2018-03-14T18:57:19.270Z,6.44
2018-03-14T18:59:52.830Z,6.39
2018-03-14T19:02:26.806Z,6.33
2018-03-14T19:05:00.474Z,6.30
2018-03-14T19:07:34.169Z,6.30
2018-03-14T19:10:07.716Z,6.27
2018-03-14T19:12:41.333Z,6.21
2018-03-14T19:15:14.945Z,6.26
2018-03-14T19:17:48.558Z,6.21
2018-03-14T19:20:22.081Z,6.12
2018-03-14T19:22:55.727Z,6.07
2018-03-14T19:25:29.592Z,6.08
2018-03-14T19:28:03.379Z,6.03
2018-03-14T19:30:37.003Z,5.99
2018-03-14T19:33:10.603Z,6.04
2018-03-14T19:35:44.475Z,6.10
2018-03-14T19:38:18.236Z,6.15
2018-03-14T19:40:52.138Z,6.09
2018-03-14T19:43:25.874Z,6.06
2018-03-14T19:45:59.473Z,6.03
2018-03-14T19:48:33.150Z,5.96
2018-03-14T19:51:06.944Z,5.86
2018-03-14T19:53:40.619Z,5.80
2018-03-14T19:56:14.296Z,5.85
2018-03-14T19:58:47.963Z,5.78
2018-03-14T20:01:21.612Z,5.75
2018-03-14T20:03:55.229Z,5.63
2018-03-14T20:06:28.994Z,5.57
2018-03-14T20:09:02.645Z,5.62
2018-03-14T20:11:36.243Z,5.59
2018-03-14T20:14:09.858Z,5.66
2018-03-14T20:16:43.513Z,5.73
2018-03-14T20:19:17.072Z,5.68
2018-03-14T20:21:50.994Z,5.65
2018-03-14T20:24:24.611Z,5.65
2018-03-14T20:26:58.338Z,5.65
2018-03-14T20:29:32.000Z,5.68
2018-03-14T20:32:05.625Z,5.71
2018-03-14T20:34:39.175Z,5.63
2018-03-14T20:37:12.737Z,5.55
2018-03-14T20:39:46.426Z,5.54
2018-03-14T20:42:19.998Z,5.55
2018-03-14T20:44:53.786Z,5.51
2018-03-14T20:47:27.470Z,5.46
2018-03-14T20:50:01.083Z,5.42
2018-03-14T20:52:34.766Z,5.45
2018-03-14T20:55:08.285Z,5.46
2018-03-14T20:57:41.959Z,5.30
2018-03-14T21:00:15.482Z,5.19
2018-03-14T21:02:49.122Z,5.14
2018-03-14T21:05:22.930Z,5.14
2018-03-14T21:07:56.699Z,5.17
2018-03-14T21:10:30.267Z,5.15
2018-03-14T21:13:04.034Z,5.11
2018-03-14T21:15:37.695Z,5.08
2018-03-14T21:18:11.309Z,5.09
2018-03-14T21:20:45.079Z,4.96
2018-03-14T21:23:18.654Z,4.96
2018-03-14T21:25:52.416Z,5.01
2018-03-14T21:28:25.996Z,4.93
2018-03-14T21:30:59.750Z,4.91
2018-03-14T21:33:33.360Z,4.89
2018-03-14T21:36:07.195Z,4.81
2018-03-14T21:38:41.104Z,4.92
2018-03-14T21:41:14.651Z,4.90
2018-03-14T21:43:48.222Z,4.82
2018-03-14T21:46:21.902Z,4.82
2018-03-14T21:48:55.474Z,4.89
2018-03-14T21:51:29.066Z,4.94
2018-03-14T21:54:02.642Z,4.98
2018-03-14T21:56:36.161Z,4.93
2018-03-14T21:59:09.710Z,4.83
2018-03-14T22:01:43.379Z,4.89
2018-03-14T22:04:16.991Z,4.88
2018-03-14T22:06:50.734Z,4.93
2018-03-14T22:09:24.376Z,4.91
2018-03-14T22:11:58.004Z,4.90
2018-03-14T22:14:31.492Z,4.92
2018-03-14T22:17:05.090Z,4.91
2018-03-14T22:19:38.598Z,4.83
2018-03-14T22:22:12.200Z,4.76
2018-03-14T22:24:45.830Z,4.73
2018-03-14T22:27:19.425Z,4.76
2018-03-14T22:29:53.034Z,4.87
2018-03-14T22:32:26.705Z,4.94
2018-03-14T22:35:00.331Z,4.79
2018-03-14T22:37:34.034Z,4.86
2018-03-14T22:40:07.641Z,4.87
2018-03-14T22:42:41.273Z,4.93
2018-03-14T22:45:14.835Z,4.88
2018-03-14T22:47:48.518Z,4.84
2018-03-14T22:50:22.051Z,4.79
2018-03-14T22:52:55.694Z,4.80
2018-03-14T22:55:29.382Z,4.80
2018-03-14T22:58:02.962Z,4.74
2018-03-14T23:00:36.622Z,4.74
2018-03-14T23:03:10.182Z,4.73
2018-03-14T23:05:43.881Z,4.84
2018-03-14T23:08:17.559Z,4.89
2018-03-14T23:10:51.161Z,4.87
2018-03-14T23:13:24.717Z,4.93
2018-03-14T23:15:58.382Z,4.88
2018-03-14T23:18:31.962Z,4.82
2018-03-14T23:21:05.611Z,4.87
2018-03-14T23:23:39.142Z,4.87
2018-03-14T23:26:12.766Z,4.90
2018-03-14T23:28:46.413Z,4.93
2018-03-14T23:31:20.087Z,4.91
2018-03-14T23:33:53.552Z,4.86
2018-03-14T23:36:27.178Z,4.77
2018-03-14T23:39:00.814Z,4.85
2018-03-14T23:41:34.389Z,4.88
2018-03-14T23:44:08.018Z,4.91
2018-03-14T23:46:41.712Z,4.92
2018-03-14T23:49:15.301Z,4.83
2018-03-14T23:51:48.977Z,4.82
2018-03-14T23:54:22.637Z,4.85
2018-03-14T23:56:56.302Z,4.76
2018-03-14T23:59:30.053Z,4.74
